Metar Cercanos

 

LEPA - Palma De Mallorc, Spain
Distance from station: ONO 38km
Actualización: 14/12/2017 01:30
Few Clouds
Few Clouds
 Viento del OSO
Viento: OSO 20 km/h
Temperatura: 14°C
Rocío: 8°C
Humedad: 67%
Barómetro: 1020 hPa
Clouds: Few Clouds
Visibility: 10 km
Cloud details: Few Clouds 792 m
2017/12/14 00:30 LEPA 140030Z 25011KT 9999 FEW026 14/08 Q1020 NOSIG
LEMH - Mahon/Menorca Is, Spain
Distance from station: ENE 105km
Actualización: 14/12/2017 01:30
Despejado
Despejado
 Viento del O
Viento: O 24 km/h
Temperatura: 13°C
Rocío: 8°C
Humedad: 72%
Barómetro: 1020 hPa
Clouds: Despejado
Visibility: 8 km
2017/12/14 00:30 LEMH 140030Z AUTO 26013KT 210V290 8000 NCD 13/08 Q1020
 
LEIB - Ibiza/Es Codola, Spain
Distance from station: OSO 165km
Actualización: 14/12/2017 00:30
NOT Current
Despejado
Despejado
 Viento del OSO
Viento: OSO 31 km/h
Temperatura: 15°C
Rocío: 7°C
Humedad: 59%
Barómetro: 1022 hPa
Resumen: Despejado
Visibility: greater than 10 km
2017/12/13 23:30 LEIB 132330Z 24017KT CAVOK 15/07 Q1022 NOSIG
LEBL - Barcelona Airpor, Spain
Distance from station: NNO 225km
Actualización: 14/12/2017 01:30
Few Clouds
Few Clouds
 Viento del N
Viento: N 15 km/h
Clouds: Few Clouds
Visibility: 10 km
Cloud details: Few Clouds 914 m
2017/12/14 00:30 LEBL 140030Z 35008KT 9999 FEW030 09/// Q1017 NOSIG
 
LEVC - Valencia (civ/Mi, Spain
Distance from station: NO 188km
Actualización: 14/12/2017 01:30
Despejado
Despejado
 Viento del SO
Viento: SO 15 km/h
Temperatura: 12°C
Rocío: 3°C
Humedad: 54%
Barómetro: 1021 hPa
Resumen: Despejado
Visibility: greater than 10 km
2017/12/14 00:30 LEVC 140030Z 23008KT CAVOK 12/03 Q1021 NOSIG
LEGE - Gerona/Costa Bra, Spain
Distance from station: N 276km
Actualización: 14/12/2017 01:30
Despejado
Despejado
 Viento del varies
Viento: varies 2 km/h
Temperatura: 4°C
Rocío: 2°C
Humedad: 87%
Barómetro: 1016 hPa
Resumen: Despejado
Visibility: greater than 10 km
2017/12/14 00:30 LEGE 140030Z VRB01KT CAVOK 04/02 Q1016
 
LEAL - Alicante/El Alte, Spain
Distance from station: OSO 344km
Actualización: 14/12/2017 01:30
Despejado
Despejado
 Viento del OSO
Viento: OSO 19 km/h
Temperatura: 10°C
Sensación frio: 7°C
Rocío: 0°C
Humedad: 50%
Barómetro: 1023 hPa
Resumen: Despejado
Visibility: greater than 10 km
2017/12/14 00:30 LEAL 140030Z 24010KT 200V260 CAVOK 10/M00 Q1023 NOSIG
LEAM - Almeria Airport, Spain
Distance from station: SSO 56km
Actualización: 14/12/2017 01:30
Despejado
Despejado
 Viento del NNO
Viento: NNO 11 km/h
Temperatura: 8°C
Sensación frio: 6°C
Rocío: 5°C
Humedad: 82%
Barómetro: 1025 hPa
Clouds: Despejado
Visibility: 10 km
2017/12/14 00:30 LEAM 140030Z AUTO 33006KT 9999 NCD 08/05 Q1025
 
LEZG - Zaragoza (mil/Ci, Spain
Distance from station: NO 431km
Actualización: 14/12/2017 01:30
Despejado
Despejado
 Viento del SO
Viento: SO 28 km/h
Temperatura: 11°C
Rocío: 5°C
Humedad: 67%
Barómetro: 1020 hPa
Resumen: Despejado
Visibility: greater than 10 km
2017/12/14 00:30 LEZG 140030Z 23015KT CAVOK 11/05 Q1020
LEMD - Madrid/Barajas, Spain
Distance from station: ONO 234km
Actualización: 14/12/2017 01:30
Few Clouds
Few Clouds
 Viento del N
Viento: N 6 km/h
Temperatura: 1°C
Rocío: 1°C
Humedad: 100%
Barómetro: 1024 hPa
Clouds: Few Clouds
Visibility: 10 km
Cloud details: Few Clouds 457 m
2017/12/14 00:30 LEMD 140030Z 01003KT 300V040 9999 FEW015 01/01 Q1024 NOSIG
 
LEGR - Granada Airport, Spain
Distance from station: OSO 62km
Actualización: 14/12/2017 01:30
Despejado
Despejado
 Viento del varies
Viento: varies 4 km/h
Temperatura: 0°C
Rocío: -1°C
Humedad: 93%
Barómetro: 1028 hPa
Clouds: Despejado
Visibility: 9 km
2017/12/14 00:30 LEGR 140030Z AUTO VRB02KT 9000 NCD M00/M01 Q1028
LEMG - Malaga (civ/Mil), Spain
Distance from station: OSO 227km
Actualización: 14/12/2017 01:30
Despejado
Despejado
 Viento del NO
Viento: NO 15 km/h
Temperatura: 7°C
Sensación frio: 4°C
Rocío: 5°C
Humedad: 87%
Barómetro: 1026 hPa
Resumen: Despejado
Visibility: greater than 10 km
2017/12/14 00:30 LEMG 140030Z 31008KT CAVOK 07/05 Q1026 NOSIG
 
LEZL - Sevilla (civ/Mil, Spain
Distance from station: S 318km
Actualización: 14/12/2017 01:30
Despejado
Despejado
 Viento del calm
Viento: Calma
Temperatura: 6°C
Rocío: 5°C
Humedad: 93%
Barómetro: 1028 hPa
Clouds: Despejado
Visibility: 8 km
2017/12/14 00:30 LEZL 140030Z AUTO 00000KT 8000 NCD 06/05 Q1028
LEVT - Vitoria, Spain
Distance from station: NO 226km
Actualización: 14/12/2017 01:30
Muy nuboso
Muy nuboso
 Viento del SO
Viento: SO 20 km/h
Temperatura: 10°C
Sensación frio: 7°C
Rocío: 7°C
Humedad: 82%
Barómetro: 1020 hPa
Clouds: Muy nuboso
Visibility: 10 km
Cloud details: Muy nuboso 610 m
2017/12/14 00:30 LEVT 140030Z 22011KT 9999 BKN020 10/07 Q1020
 
LEBB - Bilbao/Sondica, Spain
Distance from station: NNO 235km
Actualización: 14/12/2017 01:30
Lluvia débil, Muy nuboso
Lluvia débil, Muy nuboso
 Viento del varies
Viento: varies 2 km/h
Temperatura: 11°C
Rocío: 11°C
Humedad: 100%
Barómetro: 1019 hPa
Resumen: Lluvia débil
Clouds: Muy nuboso
Visibility: 9 km
Cloud details: Few Clouds 579 m
Muy nuboso 762 m
Muy nuboso 1097 m
2017/12/14 00:30 LEBB 140030Z AUTO VRB01KT 9000 -RA FEW019/// BKN025/// BKN036/// 11/11 Q1019
LESO - San Sebastian/Fu, Spain
Distance from station: N 231km
Actualización: 14/12/2017 01:30
Lluvia débil, Muy nuboso
Lluvia débil, Muy nuboso
 Viento del SSO
Viento: SSO 9 km/h
Temperatura: 11°C
Rocío: 11°C
Humedad: 100%
Barómetro: 1019 hPa
Resumen: Lluvia débil
Clouds: Muy nuboso
Visibility: 4 km
Cloud details: Muy nuboso 792 m
Muy nuboso 1036 m
2017/12/14 00:30 LESO 140030Z AUTO 21005KT 190V290 3900 -RA BKN026/// BKN034/// 11/11 Q1019
 
LEVD - Valladolid(Mil/C, Spain
Distance from station: ONO 239km
Actualización: 13/12/2017 21:30
NOT Current
Cubierto
Cubierto
 Viento del OSO
Viento: OSO 28 km/h
Temperatura: 7°C
Sensación frio: 3°C
Rocío: 5°C
Humedad: 87%
Barómetro: 1023 hPa
Clouds: Cubierto
Visibility: 10 km
Cloud details: Muy nuboso 244 m
Cubierto 274 m
2017/12/13 20:30 LEVD 132030Z 24015KT 9999 BKN008 OVC009 07/05 Q1023
LESA - Salamanca (civ/M, Spain
Distance from station: ONO 349km
Actualización: 13/12/2017 21:00
NOT Current
Muy nuboso
Muy nuboso
 Viento del SSO
Viento: SSO 6 km/h
Temperatura: 6°C
Rocío: 4°C
Humedad: 87%
Barómetro: 1026 hPa
Clouds: Muy nuboso
Visibility: 10 km
Cloud details: Muy nuboso 640 m
2017/12/13 20:00 LESA 132000Z 20003KT 9999 BKN021 06/04 Q1026
 
LEXJ - Santander/Paraya, Spain
Distance from station: NNO 247km
Actualización: 14/12/2017 01:30
Lluvia, Muy nuboso
Lluvia, Muy nuboso
 Viento del O
Viento: O 19 km/h
Temperatura: 13°C
Rocío: 13°C
Humedad: 100%
Barómetro: 1019 hPa
Resumen: Lluvia
Clouds: Muy nuboso
Visibility: 2 km
Cloud details: Parcialmente nuboso 244 m
Parcialmente nuboso 396 m
Muy nuboso 579 m
2017/12/14 00:30 LEXJ 140030Z AUTO 28010KT 2300 RA SCT008/// SCT013/// BKN019/// 13/13 Q1019
LEAS - Asturias/Aviles, Spain
Distance from station: NO 214km
Actualización: 14/12/2017 01:30
Mist, Muy nuboso
Mist, Muy nuboso
 Viento del ONO
Viento: ONO 24 km/h
Temperatura: 13°C
Rocío: 11°C
Humedad: 88%
Barómetro: 1019 hPa
Resumen: Mist
Clouds: Muy nuboso
Visibility: 4 km
Cloud details: Muy nuboso 671 m
Muy nuboso 914 m
Muy nuboso 2377 m
2017/12/14 00:30 LEAS 140030Z AUTO 29013KT 260V320 4300 BR BKN022/// BKN030/// BKN078/// 13/11 Q1019
 
LECO - La Coruna/Alvedr, Spain
Distance from station: ONO 222km
Actualización: 14/12/2017 01:30
Despejado
Despejado
 Viento del O
Viento: O 11 km/h
Temperatura: 13°C
Rocío: 12°C
Humedad: 94%
Barómetro: 1021 hPa
Resumen: Despejado
Visibility: greater than 10 km
2017/12/14 00:30 LECO 140030Z AUTO 27006KT 230V300 CAVOK 13/12 Q1021
LEVX - Vigo/Peinador, Spain
Distance from station: O 214km
Actualización: 14/12/2017 01:30
Lluvia débil, Niebla, Cubierto
Lluvia débil, Niebla, Cubierto
 Viento del OSO
Viento: OSO 13 km/h
Temperatura: 14°C
Rocío: 14°C
Humedad: 100%
Barómetro: 1023 hPa
Resumen: Lluvia débil, Niebla
Clouds: Cubierto
Visibility: 0 km
Cloud details: Cubierto 30 m
2017/12/14 00:30 LEVX 140030Z 25007KT 210V310 0100 R19/0800U R01/0375D -RA FG VV001 14/14 Q1023 NOSIG